Time;durP1;ratioP1;P1;durP2;ratioP2;P2;SDS_P1;SDS_P2;PMS_P1;PMS_P2;Temp;Humidity;BMP_temperature;BMP_pressure;BME280_temperature;BME280_humidity;BME280_pressure;Samples;Min_cycle;Max_cycle;Signal;HPM_P1;HPM_P2
2024/03/05 00:01:52;;;;;;;41.53;18.35;;;;;;;;;;5000783;28;20054;-63
2024/03/05 00:04:40;;;;;;;40.47;18.98;;;;;;;;;;4997323;28;20073;-55
2024/03/05 00:07:36;;;;;;;37.95;18.90;;;;;;;;;;4991161;28;20054;-57
2024/03/05 00:10:23;;;;;;;38.17;18.25;;;;;;;;;;4992956;28;20052;-55
2024/03/05 00:13:18;;;;;;;33.05;16.90;;;;;;;;;;4996382;28;20050;-54
2024/03/05 00:16:05;;;;;;;41.05;17.13;;;;;;;;;;4991313;28;20568;-60
2024/03/05 00:18:48;;;;;;;34.92;16.52;;;;;;;;;;4977002;28;20054;-61
2024/03/05 00:21:15;;;;;;;34.17;17.38;;;;;;;;;;4976321;28;20054;-60
2024/03/05 00:23:49;;;;;;;34.92;16.15;;;;;;;;;;4974236;28;20054;-61
2024/03/05 00:26:18;;;;;;;32.22;16.63;;;;;;;;;;4972711;28;20553;-61
2024/03/05 00:28:45;;;;;;;36.72;16.92;;;;;;;;;;4976202;28;20055;-60
2024/03/05 00:31:40;;;;;;;34.33;16.10;;;;;;;;;;4972691;28;20054;-60
2024/03/05 00:34:27;;;;;;;36.08;15.23;;;;;;;;;;4971646;28;20105;-65
2024/03/05 00:37:21;;;;;;;31.27;15.80;;;;;;;;;;4973472;28;20050;-64
2024/03/05 00:40:09;;;;;;;29.25;15.27;;;;;;;;;;4973400;28;20058;-66
2024/03/05 00:43:03;;;;;;;31.67;16.63;;;;;;;;;;4975983;28;20055;-64
2024/03/05 00:45:50;;;;;;;25.73;11.98;;;;;;;;;;4974100;28;20810;-53
2024/03/05 00:48:44;;;;;;;30.02;13.88;;;;;;;;;;4974531;28;20050;-51
2024/03/05 00:51:31;;;;;;;28.05;13.57;;;;;;;;;;4972194;28;20058;-48
2024/03/05 00:54:24;;;;;;;33.42;14.20;;;;;;;;;;4975406;28;20499;-52
2024/03/05 00:57:12;;;;;;;27.58;14.73;;;;;;;;;;4972229;28;20050;-53
2024/03/05 01:00:06;;;;;;;28.70;13.20;;;;;;;;;;4971512;28;20051;-49
2024/03/05 01:02:53;;;;;;;24.98;14.20;;;;;;;;;;4975234;28;20280;-50
2024/03/05 01:05:47;;;;;;;33.80;15.07;;;;;;;;;;4973869;28;20062;-53
2024/03/05 01:08:34;;;;;;;27.58;14.43;;;;;;;;;;4971739;28;20050;-51
2024/03/05 01:11:29;;;;;;;31.30;14.23;;;;;;;;;;4974863;28;20097;-58
2024/03/05 01:14:22;;;;;;;23.27;13.38;;;;;;;;;;4975324;28;20064;-56
2024/03/05 01:17:15;;;;;;;24.90;13.05;;;;;;;;;;4973342;28;20046;-56
2024/03/05 01:20:15;;;;;;;27.45;13.38;;;;;;;;;;4973606;28;20054;-55
2024/03/05 01:22:59;;;;;;;23.88;13.20;;;;;;;;;;4974723;28;20061;-53
2024/03/05 01:25:52;;;;;;;24.70;13.27;;;;;;;;;;4974182;28;20124;-54
2024/03/05 01:28:46;;;;;;;23.83;12.75;;;;;;;;;;4974588;28;20062;-55
2024/03/05 01:31:40;;;;;;;21.58;12.15;;;;;;;;;;4971042;28;20050;-63
2024/03/05 01:34:28;;;;;;;25.07;13.03;;;;;;;;;;4969816;28;20506;-63
2024/03/05 01:37:23;;;;;;;25.23;12.27;;;;;;;;;;4963260;28;20100;-63
2024/03/05 01:40:09;;;;;;;22.50;12.38;;;;;;;;;;4969276;28;20514;-64
2024/03/05 01:43:02;;;;;;;23.45;12.90;;;;;;;;;;4970857;28;20046;-59
2024/03/05 01:45:51;;;;;;;26.77;12.30;;;;;;;;;;4973956;28;20421;-60
2024/03/05 01:48:46;;;;;;;24.48;12.15;;;;;;;;;;4972415;28;20058;-60
2024/03/05 01:51:33;;;;;;;24.02;12.05;;;;;;;;;;4973612;28;20057;-61
2024/03/05 01:54:29;;;;;;;26.63;12.27;;;;;;;;;;4969385;28;20055;-60
2024/03/05 01:57:15;;;;;;;25.23;11.53;;;;;;;;;;4971471;28;20634;-61
2024/03/05 02:00:09;;;;;;;26.42;12.82;;;;;;;;;;4973281;28;20129;-53
2024/03/05 02:02:55;;;;;;;26.42;13.38;;;;;;;;;;4974262;28;20054;-52
2024/03/05 02:05:50;;;;;;;24.67;12.70;;;;;;;;;;4970971;28;20595;-53
2024/03/05 02:08:38;;;;;;;33.55;13.05;;;;;;;;;;4970292;28;20054;-61
2024/03/05 02:11:31;;;;;;;34.42;14.23;;;;;;;;;;4969599;28;20193;-64
2024/03/05 02:14:26;;;;;;;27.02;13.77;;;;;;;;;;4972767;28;20057;-64
2024/03/05 02:17:26;;;;;;;27.15;12.23;;;;;;;;;;4964283;28;20553;-64
2024/03/05 02:20:13;;;;;;;30.38;14.57;;;;;;;;;;4975583;28;20394;-64
2024/03/05 02:23:07;;;;;;;27.00;13.63;;;;;;;;;;4972739;28;20109;-64
2024/03/05 02:25:55;;;;;;;35.03;13.82;;;;;;;;;;4977547;28;20062;-65
2024/03/05 02:28:49;;;;;;;29.00;14.35;;;;;;;;;;4976281;28;20050;-60
2024/03/05 02:31:43;;;;;;;26.83;13.20;;;;;;;;;;4975817;28;20055;-60
2024/03/05 02:34:29;;;;;;;28.35;14.05;;;;;;;;;;4974151;28;20505;-61
2024/03/05 02:37:23;;;;;;;27.85;14.48;;;;;;;;;;4978617;28;20491;-57
2024/03/05 02:40:15;;;;;;;26.40;13.75;;;;;;;;;;4975675;28;20058;-49
2024/03/05 02:43:08;;;;;;;28.17;13.27;;;;;;;;;;4976543;28;20065;-51
2024/03/05 02:45:56;;;;;;;27.75;14.38;;;;;;;;;;4975079;28;20051;-51
2024/03/05 02:48:49;;;;;;;25.95;14.23;;;;;;;;;;4977755;28;20052;-52
2024/03/05 02:51:36;;;;;;;24.60;13.30;;;;;;;;;;4975339;28;20058;-51
2024/03/05 02:54:30;;;;;;;29.98;13.45;;;;;;;;;;4972718;28;20757;-48
2024/03/05 02:57:18;;;;;;;27.65;12.40;;;;;;;;;;4975129;28;20122;-64
2024/03/05 03:00:18;;;;;;;26.10;12.55;;;;;;;;;;4973961;28;20059;-65
2024/03/05 03:03:00;;;;;;;29.73;13.52;;;;;;;;;;4974616;28;20051;-64
2024/03/05 03:05:53;;;;;;;32.00;13.40;;;;;;;;;;4977439;28;20425;-65
2024/03/05 03:08:47;;;;;;;25.92;13.25;;;;;;;;;;4974517;28;20062;-61
2024/03/05 03:11:41;;;;;;;25.13;12.73;;;;;;;;;;4976257;28;20054;-61
2024/03/05 03:14:34;;;;;;;23.67;13.07;;;;;;;;;;4978174;28;20495;-61
2024/03/05 03:17:22;;;;;;;23.60;11.27;;;;;;;;;;4976487;28;20050;-60
2024/03/05 03:20:16;;;;;;;26.50;13.57;;;;;;;;;;4980503;28;20058;-61
2024/03/05 03:23:06;;;;;;;26.35;13.48;;;;;;;;;;4978923;28;20066;-62
2024/03/05 03:26:00;;;;;;;27.83;13.95;;;;;;;;;;4976814;28;20057;-60
2024/03/05 03:28:48;;;;;;;25.77;12.18;;;;;;;;;;4972423;28;20090;-60
2024/03/05 03:31:47;;;;;;;25.35;13.32;;;;;;;;;;4972199;28;20058;-61
2024/03/05 03:34:34;;;;;;;33.78;12.23;;;;;;;;;;4974799;28;20145;-64
2024/03/05 03:37:29;;;;;;;29.25;13.35;;;;;;;;;;4974710;28;20546;-61
2024/03/05 03:40:22;;;;;;;23.00;12.80;;;;;;;;;;4973996;28;21019;-60
2024/03/05 03:43:15;;;;;;;26.30;12.13;;;;;;;;;;4975487;28;20900;-60
2024/03/05 03:46:09;;;;;;;20.67;11.18;;;;;;;;;;4974995;28;20049;-60
2024/03/05 03:49:07;;;;;;;25.50;12.02;;;;;;;;;;4975841;28;20145;-61
2024/03/05 03:51:54;;;;;;;22.15;12.27;;;;;;;;;;4975776;28;20042;-54
2024/03/05 03:54:48;;;;;;;23.65;12.27;;;;;;;;;;4974381;28;20569;-55
2024/03/05 03:57:35;;;;;;;27.63;12.18;;;;;;;;;;4973596;28;20059;-51
2024/03/05 04:00:29;;;;;;;30.23;12.93;;;;;;;;;;4974240;28;20532;-54
2024/03/05 04:03:16;;;;;;;24.42;11.95;;;;;;;;;;4975515;28;20055;-61
2024/03/05 04:06:09;;;;;;;27.85;12.85;;;;;;;;;;4972791;28;20042;-51
2024/03/05 04:08:57;;;;;;;20.60;11.35;;;;;;;;;;4977421;28;20564;-52
2024/03/05 04:11:50;;;;;;;25.80;12.82;;;;;;;;;;4977177;28;20128;-53
2024/03/05 04:14:38;;;;;;;26.02;12.45;;;;;;;;;;4978421;28;20471;-54
2024/03/05 04:17:38;;;;;;;23.17;11.77;;;;;;;;;;4974593;28;20124;-48
2024/03/05 04:20:26;;;;;;;23.42;11.55;;;;;;;;;;4977278;28;20185;-49
2024/03/05 04:23:20;;;;;;;24.65;12.07;;;;;;;;;;4965820;28;20465;-51
2024/03/05 04:26:13;;;;;;;21.10;12.38;;;;;;;;;;4973711;28;20054;-52
2024/03/05 04:29:00;;;;;;;27.27;8.73;;;;;;;;;;4972239;28;20047;-49
2024/03/05 04:32:08;;;;;;;21.02;10.70;;;;;;;;;;4974683;28;20100;-65
2024/03/05 04:35:06;;;;;;;23.98;10.95;;;;;;;;;;4975187;28;20073;-61
2024/03/05 04:37:50;;;;;;;26.52;12.18;;;;;;;;;;4972734;28;20065;-61
2024/03/05 04:40:43;;;;;;;27.92;11.68;;;;;;;;;;4970845;28;20062;-61
2024/03/05 04:43:31;;;;;;;22.30;9.95;;;;;;;;;;4972415;28;20108;-60
2024/03/05 04:46:25;;;;;;;20.13;11.00;;;;;;;;;;4975309;28;20494;-61
2024/03/05 04:49:13;;;;;;;24.40;10.63;;;;;;;;;;4978095;28;20050;-60
2024/03/05 04:52:07;;;;;;;23.25;10.57;;;;;;;;;;4977746;28;20137;-60
2024/03/05 04:55:00;;;;;;;21.20;11.68;;;;;;;;;;4976391;28;20469;-60
2024/03/05 04:57:54;;;;;;;18.58;9.85;;;;;;;;;;4970486;28;20154;-60
2024/03/05 05:00:41;;;;;;;22.02;9.95;;;;;;;;;;4973602;28;20057;-63
2024/03/05 05:03:35;;;;;;;21.02;10.70;;;;;;;;;;4962914;28;20288;-51
2024/03/05 05:06:22;;;;;;;18.50;10.95;;;;;;;;;;4961818;28;20773;-51
2024/03/05 05:09:15;;;;;;;21.98;10.95;;;;;;;;;;4974814;28;20061;-52
2024/03/05 05:12:11;;;;;;;23.65;11.25;;;;;;;;;;4975879;28;20050;-51
2024/03/05 05:15:05;;;;;;;21.33;10.70;;;;;;;;;;4974985;28;20503;-56
2024/03/05 05:18:05;;;;;;;23.30;11.57;;;;;;;;;;4974396;28;20062;-61
2024/03/05 05:20:59;;;;;;;24.08;12.05;;;;;;;;;;4969594;28;20055;-61
2024/03/05 05:23:53;;;;;;;20.75;10.93;;;;;;;;;;4971585;28;20057;-60
2024/03/05 05:26:47;;;;;;;27.60;12.05;;;;;;;;;;4971623;28;20074;-61
2024/03/05 05:29:40;;;;;;;24.48;11.13;;;;;;;;;;4974048;28;20055;-62
2024/03/05 05:32:39;;;;;;;19.95;10.73;;;;;;;;;;4973723;28;20132;-61
2024/03/05 05:35:37;;;;;;;21.95;11.38;;;;;;;;;;4977625;28;20561;-58
2024/03/05 05:38:20;;;;;;;21.38;11.52;;;;;;;;;;4977863;28;20520;-61
2024/03/05 05:41:13;;;;;;;22.38;10.48;;;;;;;;;;4967411;28;20051;-61
2024/03/05 05:44:01;;;;;;;21.35;11.25;;;;;;;;;;4972157;28;20573;-61
2024/03/05 05:46:56;;;;;;;20.20;11.23;;;;;;;;;;4971568;28;20046;-65
2024/03/05 05:49:42;;;;;;;22.13;11.30;;;;;;;;;;4974213;28;20066;-65
2024/03/05 05:52:36;;;;;;;21.33;11.18;;;;;;;;;;4977025;28;20054;-65
2024/03/05 05:55:26;;;;;;;17.08;9.93;;;;;;;;;;4972884;28;20086;-66
2024/03/05 05:58:20;;;;;;;23.50;11.68;;;;;;;;;;4978878;28;20142;-65
2024/03/05 06:01:09;;;;;;;25.33;11.70;;;;;;;;;;4977273;28;20078;-55
2024/03/05 06:04:02;;;;;;;24.90;11.88;;;;;;;;;;4973817;28;20085;-54
2024/03/05 06:06:49;;;;;;;25.48;11.45;;;;;;;;;;4974888;28;20070;-52
2024/03/05 06:09:42;;;;;;;22.45;12.20;;;;;;;;;;4973733;28;20137;-54
2024/03/05 06:12:31;;;;;;;21.35;11.60;;;;;;;;;;4965956;28;20505;-48
2024/03/05 06:15:24;;;;;;;26.80;13.18;;;;;;;;;;4973889;28;20047;-51
2024/03/05 06:18:18;;;;;;;19.75;10.90;;;;;;;;;;4981121;28;20105;-51
2024/03/05 06:21:12;;;;;;;21.25;11.88;;;;;;;;;;4978161;28;20049;-52
2024/03/05 06:24:01;;;;;;;25.02;12.77;;;;;;;;;;4982765;28;20050;-50
2024/03/05 06:26:54;;;;;;;21.48;11.30;;;;;;;;;;4981618;28;20469;-63
2024/03/05 06:29:42;;;;;;;22.23;11.23;;;;;;;;;;4979725;28;20046;-56
2024/03/05 06:32:46;;;;;;;21.88;11.02;;;;;;;;;;4976481;28;21317;-56
2024/03/05 06:35:31;;;;;;;19.77;11.57;;;;;;;;;;4977476;28;20058;-54
2024/03/05 06:38:25;;;;;;;20.40;10.98;;;;;;;;;;4978433;28;20101;-56
2024/03/05 06:41:12;;;;;;;17.42;8.00;;;;;;;;;;4973081;28;21951;-54
2024/03/05 06:44:14;;;;;;;20.17;9.93;;;;;;;;;;4973823;28;20587;-61
2024/03/05 06:46:59;;;;;;;18.48;9.65;;;;;;;;;;4975443;28;20085;-63
2024/03/05 06:49:57;;;;;;;17.40;10.55;;;;;;;;;;4968915;28;20497;-63
2024/03/05 06:58:39;;;;;;;16.90;10.07;;;;;;;;;;4918644;29;20099;-62
2024/03/05 07:01:34;;;;;;;14.55;7.55;;;;;;;;;;4967881;28;20047;-59
2024/03/05 07:04:20;;;;;;;22.55;10.32;;;;;;;;;;4978574;28;20078;-59
2024/03/05 07:07:13;;;;;;;21.15;10.60;;;;;;;;;;4971329;28;21615;-61
2024/03/05 07:10:13;;;;;;;22.45;11.90;;;;;;;;;;4979420;28;20053;-62
2024/03/05 07:12:55;;;;;;;23.10;10.80;;;;;;;;;;4974082;28;20051;-63
2024/03/05 07:15:42;;;;;;;21.23;10.35;;;;;;;;;;4977460;28;20060;-61
2024/03/05 07:18:43;;;;;;;23.08;11.05;;;;;;;;;;4976563;28;20455;-60
2024/03/05 07:21:30;;;;;;;23.98;10.60;;;;;;;;;;4976944;28;20084;-62
2024/03/05 07:24:23;;;;;;;21.98;9.18;;;;;;;;;;4981722;28;20628;-50
2024/03/05 07:27:11;;;;;;;20.05;10.32;;;;;;;;;;4976159;28;22166;-47
2024/03/05 07:30:10;;;;;;;16.73;9.98;;;;;;;;;;4981314;28;20495;-48
2024/03/05 07:32:52;;;;;;;15.77;9.45;;;;;;;;;;4981163;28;20083;-50
2024/03/05 07:35:46;;;;;;;19.75;10.77;;;;;;;;;;4978217;28;20061;-51
2024/03/05 07:38:39;;;;;;;22.38;10.18;;;;;;;;;;4978523;28;20053;-45
2024/03/05 07:41:33;;;;;;;13.40;6.72;;;;;;;;;;4976894;28;20058;-52
2024/03/05 07:44:21;;;;;;;17.00;7.68;;;;;;;;;;4978161;28;20066;-49
2024/03/05 07:47:14;;;;;;;17.17;8.93;;;;;;;;;;4977882;28;20054;-47
2024/03/05 07:50:02;;;;;;;15.80;8.05;;;;;;;;;;4978804;28;20142;-63
2024/03/05 07:52:57;;;;;;;17.52;8.95;;;;;;;;;;4978116;28;20042;-58
2024/03/05 07:55:43;;;;;;;17.60;8.77;;;;;;;;;;4981084;28;20065;-62
2024/03/05 07:58:37;;;;;;;20.83;8.90;;;;;;;;;;4976889;28;20058;-59
2024/03/05 08:01:24;;;;;;;18.25;10.35;;;;;;;;;;4978176;28;20061;-59
2024/03/05 08:04:24;;;;;;;14.68;8.98;;;;;;;;;;4975062;28;20047;-59
2024/03/05 08:07:18;;;;;;;16.73;9.15;;;;;;;;;;4977468;28;20109;-59
2024/03/05 08:10:20;;;;;;;15.82;8.85;;;;;;;;;;4977491;28;20069;-50
2024/03/05 08:13:07;;;;;;;15.00;8.48;;;;;;;;;;4974792;28;20064;-50
2024/03/05 08:16:04;;;;;;;21.80;10.18;;;;;;;;;;4977804;28;20047;-51
2024/03/05 08:18:54;;;;;;;14.63;8.55;;;;;;;;;;4957918;28;20185;-63
2024/03/05 08:21:48;;;;;;;14.07;8.50;;;;;;;;;;4956297;28;20069;-63
2024/03/05 08:24:36;;;;;;;13.38;7.22;;;;;;;;;;4957565;28;20047;-63
2024/03/05 08:27:30;;;;;;;17.27;8.25;;;;;;;;;;4954660;28;20066;-63
2024/03/05 08:30:17;;;;;;;14.40;8.88;;;;;;;;;;4958221;28;20407;-63
2024/03/05 08:33:12;;;;;;;12.75;7.68;;;;;;;;;;4957725;28;20066;-64
2024/03/05 08:35:57;;;;;;;14.13;7.05;;;;;;;;;;4955352;28;20506;-63
2024/03/05 08:38:52;;;;;;;14.95;6.97;;;;;;;;;;4956219;28;20054;-63
2024/03/05 08:41:39;;;;;;;13.18;6.47;;;;;;;;;;4956060;28;20055;-61
2024/03/05 08:44:33;;;;;;;12.50;7.00;;;;;;;;;;4957320;28;20094;-61
2024/03/05 08:47:20;;;;;;;11.43;6.53;;;;;;;;;;4953593;28;20102;-61
2024/03/05 08:50:14;;;;;;;11.60;6.60;;;;;;;;;;4954007;28;20051;-51
2024/03/05 08:53:09;;;;;;;12.15;7.05;;;;;;;;;;4955139;28;20112;-53
2024/03/05 08:56:02;;;;;;;8.35;5.45;;;;;;;;;;4958003;28;20097;-53
2024/03/05 08:58:49;;;;;;;12.45;7.15;;;;;;;;;;4955118;28;20055;-54
2024/03/05 09:01:43;;;;;;;9.32;5.65;;;;;;;;;;4951749;28;20507;-54
2024/03/05 09:04:30;;;;;;;11.23;6.30;;;;;;;;;;4956427;28;20055;-56
2024/03/05 09:07:24;;;;;;;11.30;6.47;;;;;;;;;;4946455;28;20067;-50
2024/03/05 09:10:11;;;;;;;10.32;5.00;;;;;;;;;;4958038;28;20150;-52
2024/03/05 09:13:04;;;;;;;12.15;6.50;;;;;;;;;;4946136;28;20231;-54
2024/03/05 09:15:53;;;;;;;11.93;6.43;;;;;;;;;;4954313;28;20047;-54
2024/03/05 09:18:53;;;;;;;9.77;6.18;;;;;;;;;;4970721;28;20066;-59
2024/03/05 09:21:40;;;;;;;10.18;6.45;;;;;;;;;;4975193;28;20503;-60
2024/03/05 09:24:35;;;;;;;11.98;6.45;;;;;;;;;;4974235;28;20514;-59
2024/03/05 09:27:21;;;;;;;13.57;6.82;;;;;;;;;;4977134;28;20054;-60
2024/03/05 09:30:18;;;;;;;10.85;6.38;;;;;;;;;;4975412;28;20089;-59
2024/03/05 09:33:02;;;;;;;10.15;6.43;;;;;;;;;;4980891;28;20506;-62
2024/03/05 09:35:56;;;;;;;11.77;5.05;;;;;;;;;;4969000;28;20043;-56
2024/03/05 09:38:43;;;;;;;14.38;6.95;;;;;;;;;;4978858;28;20062;-55
2024/03/05 09:41:41;;;;;;;10.52;5.25;;;;;;;;;;4978330;28;20140;-52
2024/03/05 09:44:28;;;;;;;12.43;7.03;;;;;;;;;;4977072;28;20066;-62
2024/03/05 09:47:22;;;;;;;11.82;6.68;;;;;;;;;;4979509;28;20057;-64
2024/03/05 09:50:12;;;;;;;11.45;5.25;;;;;;;;;;4981114;28;20059;-64
2024/03/05 09:53:06;;;;;;;13.73;7.25;;;;;;;;;;4980030;28;20055;-64
2024/03/05 09:55:54;;;;;;;12.88;7.15;;;;;;;;;;4982259;28;20134;-64
2024/03/05 09:58:48;;;;;;;10.65;6.63;;;;;;;;;;4979835;28;20054;-64
2024/03/05 10:01:37;;;;;;;13.80;7.00;;;;;;;;;;4977110;28;20054;-47
2024/03/05 10:04:31;;;;;;;10.65;6.40;;;;;;;;;;4977419;28;20051;-49
2024/03/05 10:07:25;;;;;;;12.73;7.47;;;;;;;;;;4979003;28;20589;-48
2024/03/05 10:10:13;;;;;;;12.10;6.75;;;;;;;;;;4973922;28;20054;-47
2024/03/05 10:13:07;;;;;;;13.10;6.75;;;;;;;;;;4976826;28;20499;-56
2024/03/05 10:15:54;;;;;;;14.63;6.40;;;;;;;;;;4981123;28;20050;-60
2024/03/05 10:18:54;;;;;;;12.35;6.35;;;;;;;;;;4977373;28;20062;-59
2024/03/05 10:21:49;;;;;;;10.13;6.72;;;;;;;;;;4978713;28;20055;-59
2024/03/05 10:24:56;;;;;;;9.80;5.70;;;;;;;;;;4979917;28;20095;-59
2024/03/05 10:27:51;;;;;;;8.85;5.50;;;;;;;;;;4976514;28;20466;-60
2024/03/05 10:30:47;;;;;;;14.13;6.40;;;;;;;;;;4978108;28;20648;-50
2024/03/05 10:33:32;;;;;;;10.32;6.55;;;;;;;;;;4980500;28;20053;-45
2024/03/05 10:36:26;;;;;;;11.40;5.20;;;;;;;;;;4976628;28;20109;-49
2024/03/05 10:39:14;;;;;;;10.67;6.93;;;;;;;;;;4979460;28;20070;-48
2024/03/05 10:42:11;;;;;;;9.75;5.25;;;;;;;;;;4976043;28;20364;-47
2024/03/05 10:45:02;;;;;;;13.95;7.45;;;;;;;;;;4974913;28;20097;-60
2024/03/05 10:47:59;;;;;;;12.98;6.82;;;;;;;;;;4976126;28;20108;-58
2024/03/05 10:50:56;;;;;;;11.27;6.40;;;;;;;;;;4978144;28;20056;-59
2024/03/05 10:53:43;;;;;;;12.10;6.88;;;;;;;;;;4975329;28;20058;-59
2024/03/05 10:56:37;;;;;;;15.85;7.03;;;;;;;;;;4977501;28;20498;-60
2024/03/05 10:59:51;;;;;;;11.35;7.60;;;;;;;;;;4978042;28;20069;-53
2024/03/05 11:02:37;;;;;;;13.18;6.68;;;;;;;;;;4979170;28;20506;-52
2024/03/05 11:05:25;;;;;;;12.13;6.95;;;;;;;;;;4966161;28;20082;-54
2024/03/05 11:08:19;;;;;;;13.48;7.93;;;;;;;;;;4978980;28;20049;-51
2024/03/05 11:11:20;;;;;;;13.18;7.00;;;;;;;;;;4980584;28;20559;-57
2024/03/05 11:14:15;;;;;;;12.77;6.72;;;;;;;;;;4977959;28;20062;-56
2024/03/05 11:17:12;;;;;;;11.52;7.25;;;;;;;;;;4977025;28;20518;-56
2024/03/05 11:20:11;;;;;;;13.20;7.57;;;;;;;;;;4953989;28;20454;-57
2024/03/05 11:22:57;;;;;;;12.55;6.20;;;;;;;;;;4952164;28;20110;-55
2024/03/05 11:25:52;;;;;;;10.55;5.70;;;;;;;;;;4957702;28;20054;-56
2024/03/05 11:28:38;;;;;;;12.32;5.53;;;;;;;;;;4955183;28;20059;-56
2024/03/05 11:31:32;;;;;;;13.48;7.30;;;;;;;;;;4956023;28;20125;-55
2024/03/05 11:34:20;;;;;;;13.73;7.72;;;;;;;;;;4953138;28;20719;-56
2024/03/05 11:37:15;;;;;;;11.18;5.78;;;;;;;;;;4955146;28;20247;-60
2024/03/05 11:40:04;;;;;;;;;;;;;;;;;;4958013;28;20054;-62
2024/03/05 11:42:56;;;;;;;17.65;9.30;;;;;;;;;;4959324;28;20693;-61
2024/03/05 11:45:51;;;;;;;15.55;8.82;;;;;;;;;;4955349;28;20066;-62
2024/03/05 11:48:42;;;;;;;17.25;8.90;;;;;;;;;;4948987;28;20051;-61
2024/03/05 11:51:30;;;;;;;12.38;7.60;;;;;;;;;;4954215;28;20217;-62
2024/03/05 11:54:23;;;;;;;18.13;9.05;;;;;;;;;;4954548;28;20102;-61
2024/03/05 11:57:11;;;;;;;14.88;8.07;;;;;;;;;;4955509;28;20161;-49
2024/03/05 12:00:14;;;;;;;16.60;8.73;;;;;;;;;;4955797;28;20055;-47
2024/03/05 12:03:01;;;;;;;13.75;8.20;;;;;;;;;;4955036;28;20058;-45
2024/03/05 12:05:55;;;;;;;18.35;9.48;;;;;;;;;;4951891;28;20566;-49
2024/03/05 12:08:42;;;;;;;12.82;7.05;;;;;;;;;;4955404;28;20506;-62
2024/03/05 12:11:36;;;;;;;14.40;7.63;;;;;;;;;;4955614;28;20499;-62
2024/03/05 12:14:23;;;;;;;14.35;6.82;;;;;;;;;;4958184;28;20051;-62
2024/03/05 12:17:30;;;;;;;20.17;7.95;;;;;;;;;;4954173;28;20059;-62
2024/03/05 12:20:25;;;;;;;18.63;9.85;;;;;;;;;;4953022;28;20062;-62
2024/03/05 12:23:19;;;;;;;21.50;10.00;;;;;;;;;;4952379;28;20058;-62
2024/03/05 12:26:09;;;;;;;18.50;8.80;;;;;;;;;;4955595;28;20079;-61
2024/03/05 12:29:02;;;;;;;14.63;6.60;;;;;;;;;;4953410;28;20102;-62
2024/03/05 12:31:50;;;;;;;16.95;9.55;;;;;;;;;;4954498;28;20054;-61
2024/03/05 12:34:43;;;;;;;18.02;10.15;;;;;;;;;;4956042;28;20051;-55
2024/03/05 12:37:31;;;;;;;13.07;7.43;;;;;;;;;;4954799;28;20070;-56
2024/03/05 12:40:28;;;;;;;17.88;9.35;;;;;;;;;;4958798;28;20078;-56
2024/03/05 12:43:13;;;;;;;19.88;9.77;;;;;;;;;;4953508;28;20151;-57
2024/03/05 12:46:06;;;;;;;19.58;9.32;;;;;;;;;;4956647;28;20110;-56
2024/03/05 12:49:01;;;;;;;22.55;9.18;;;;;;;;;;4957448;28;20565;-56
2024/03/05 12:51:47;;;;;;;14.48;7.65;;;;;;;;;;4955448;28;20067;-53
2024/03/05 12:54:41;;;;;;;17.50;9.63;;;;;;;;;;4956915;28;20050;-61
2024/03/05 12:57:35;;;;;;;17.25;9.70;;;;;;;;;;4955544;28;20141;-62
2024/03/05 13:00:34;;;;;;;18.23;9.65;;;;;;;;;;4953963;28;20790;-62
2024/03/05 13:03:17;;;;;;;15.70;9.02;;;;;;;;;;4950544;28;20055;-62
2024/03/05 13:06:11;;;;;;;17.30;9.80;;;;;;;;;;4954681;28;20051;-60
2024/03/05 13:08:58;;;;;;;25.33;10.23;;;;;;;;;;4950694;28;20059;-61
2024/03/05 13:11:52;;;;;;;19.00;9.07;;;;;;;;;;4954606;28;20051;-60
2024/03/05 13:14:40;;;;;;;21.05;9.63;;;;;;;;;;4954415;28;20118;-60
2024/03/05 13:17:45;;;;;;;24.58;10.82;;;;;;;;;;4954201;28;20569;-60
2024/03/05 13:20:40;;;;;;;19.27;10.73;;;;;;;;;;4972564;28;20426;-60
2024/03/05 13:23:34;;;;;;;18.23;9.60;;;;;;;;;;4975622;28;20255;-58
2024/03/05 13:26:22;;;;;;;18.65;8.93;;;;;;;;;;4975114;28;20125;-55
2024/03/05 13:29:15;;;;;;;21.27;10.82;;;;;;;;;;4973877;28;20142;-54
2024/03/05 13:32:03;;;;;;;16.42;10.18;;;;;;;;;;4974625;28;20093;-62
2024/03/05 13:34:57;;;;;;;22.95;10.15;;;;;;;;;;4975020;28;20054;-63
2024/03/05 13:37:51;;;;;;;20.38;9.90;;;;;;;;;;4974832;28;21081;-62
2024/03/05 13:40:38;;;;;;;20.42;9.80;;;;;;;;;;4974056;28;20541;-62
2024/03/05 13:43:32;;;;;;;20.13;10.98;;;;;;;;;;4975112;28;20120;-62
2024/03/05 13:46:19;;;;;;;22.42;10.98;;;;;;;;;;4976160;28;20053;-62
2024/03/05 13:49:20;;;;;;;21.35;11.75;;;;;;;;;;4972499;28;20067;-62
2024/03/05 13:52:08;;;;;;;20.48;10.48;;;;;;;;;;4973074;28;20193;-65
2024/03/05 13:55:02;;;;;;;21.48;8.82;;;;;;;;;;4974678;28;20084;-65
2024/03/05 13:57:48;;;;;;;18.10;10.32;;;;;;;;;;4974448;28;20058;-65
2024/03/05 14:00:43;;;;;;;18.85;10.30;;;;;;;;;;4972503;28;20054;-65
2024/03/05 14:03:29;;;;;;;20.60;10.43;;;;;;;;;;4972893;28;20054;-49
2024/03/05 14:06:23;;;;;;;23.02;11.45;;;;;;;;;;4971827;28;20062;-48
2024/03/05 14:09:10;;;;;;;20.85;11.20;;;;;;;;;;4974129;28;20427;-47
2024/03/05 14:12:04;;;;;;;20.77;10.45;;;;;;;;;;4974428;28;20070;-45
2024/03/05 14:15:04;;;;;;;25.17;12.35;;;;;;;;;;4972655;28;20054;-46
2024/03/05 14:18:11;;;;;;;28.17;11.93;;;;;;;;;;4975262;28;20118;-55
2024/03/05 14:21:04;;;;;;;;;;;;;;;;;;4978901;28;20117;-55
2024/03/05 14:23:59;;;;;;;24.15;10.88;;;;;;;;;;4980836;28;19926;-55
2024/03/05 14:26:46;;;;;;;22.85;11.40;;;;;;;;;;4975045;28;20392;-54
2024/03/05 14:29:40;;;;;;;23.17;11.68;;;;;;;;;;4978898;28;20054;-62
2024/03/05 14:32:27;;;;;;;32.25;11.60;;;;;;;;;;4978689;28;20077;-46
2024/03/05 14:35:22;;;;;;;25.73;11.77;;;;;;;;;;4973218;28;20073;-46
2024/03/05 14:38:16;;;;;;;24.60;11.50;;;;;;;;;;4976028;28;20043;-46
2024/03/05 14:41:02;;;;;;;23.90;11.40;;;;;;;;;;4978902;28;20054;-46
2024/03/05 14:43:49;;;;;;;32.60;12.85;;;;;;;;;;4977639;28;20050;-52
2024/03/05 14:46:43;;;;;;;24.40;11.25;;;;;;;;;;4978259;28;20073;-57
2024/03/05 14:49:30;;;;;;;25.63;11.45;;;;;;;;;;4980564;28;20145;-56
2024/03/05 14:52:24;;;;;;;22.33;11.27;;;;;;;;;;4969653;28;20046;-56
2024/03/05 14:55:12;;;;;;;24.92;13.00;;;;;;;;;;4977640;28;20054;-54
2024/03/05 14:58:06;;;;;;;27.17;12.13;;;;;;;;;;4975984;28;20054;-60
2024/03/05 15:00:53;;;;;;;23.92;11.05;;;;;;;;;;4977200;28;20050;-62
2024/03/05 15:03:46;;;;;;;21.98;11.38;;;;;;;;;;4976484;28;20348;-62
2024/03/05 15:06:34;;;;;;;26.95;12.00;;;;;;;;;;4974455;28;20140;-61
2024/03/05 15:09:28;;;;;;;25.40;12.43;;;;;;;;;;4975934;28;20054;-62
2024/03/05 15:12:15;;;;;;;26.42;12.88;;;;;;;;;;4975233;28;20149;-62
2024/03/05 15:15:09;;;;;;;27.63;12.70;;;;;;;;;;4978908;28;20058;-62
2024/03/05 15:18:05;;;;;;;24.08;11.80;;;;;;;;;;4975607;28;20062;-63
2024/03/05 15:20:56;;;;;;;23.17;10.27;;;;;;;;;;4976360;28;20395;-62
2024/03/05 15:23:53;;;;;;;24.17;12.77;;;;;;;;;;4976365;28;20058;-63
2024/03/05 15:26:44;;;;;;;25.77;12.80;;;;;;;;;;4979563;28;20494;-51
2024/03/05 15:29:37;;;;;;;25.45;12.85;;;;;;;;;;4974178;28;20073;-62
2024/03/05 15:32:24;;;;;;;27.17;12.35;;;;;;;;;;4975131;28;20391;-63
2024/03/05 15:35:20;;;;;;;25.02;13.38;;;;;;;;;;4978015;28;20434;-63
2024/03/05 15:38:07;;;;;;;;;;;;;;;;;;4975797;28;20430;-63
2024/03/05 15:41:05;;;;;;;24.77;12.57;;;;;;;;;;4976343;28;19926;-62
2024/03/05 15:43:53;;;;;;;26.48;13.00;;;;;;;;;;4976067;28;20060;-60
2024/03/05 15:46:48;;;;;;;32.13;12.10;;;;;;;;;;4977571;28;20050;-60
2024/03/05 15:49:34;;;;;;;23.20;12.67;;;;;;;;;;4979488;28;20050;-61
2024/03/05 15:52:28;;;;;;;26.75;13.50;;;;;;;;;;4975020;28;20058;-60
2024/03/05 15:55:17;;;;;;;23.65;12.90;;;;;;;;;;4973675;28;20125;-60
2024/03/05 15:58:18;;;;;;;33.90;13.60;;;;;;;;;;4976293;28;20514;-61
2024/03/05 16:00:58;;;;;;;22.45;12.05;;;;;;;;;;4972328;28;20062;-60
2024/03/05 16:03:50;;;;;;;28.20;13.05;;;;;;;;;;4974078;28;20077;-61
2024/03/05 16:06:58;;;;;;;25.30;13.18;;;;;;;;;;4975840;28;20047;-60
2024/03/05 16:09:52;;;;;;;27.30;13.23;;;;;;;;;;4974557;28;20053;-60
2024/03/05 16:12:43;;;;;;;27.27;12.50;;;;;;;;;;4972123;28;20062;-57
2024/03/05 16:15:37;;;;;;;26.05;13.13;;;;;;;;;;4974351;28;20074;-56
2024/03/05 16:18:31;;;;;;;24.83;11.90;;;;;;;;;;4971788;28;20152;-56
2024/03/05 16:21:33;;;;;;;25.95;13.75;;;;;;;;;;4975321;28;20077;-54
2024/03/05 16:24:18;;;;;;;29.88;13.05;;;;;;;;;;4972107;28;20069;-61
2024/03/05 16:27:15;;;;;;;26.55;12.77;;;;;;;;;;4967284;28;20042;-52
2024/03/05 16:30:00;;;;;;;28.85;12.98;;;;;;;;;;4967219;28;20082;-51
2024/03/05 16:32:54;;;;;;;22.95;11.40;;;;;;;;;;4969096;28;20113;-52
2024/03/05 16:35:43;;;;;;;25.80;12.35;;;;;;;;;;4971488;28;20112;-53
2024/03/05 16:38:36;;;;;;;31.77;13.45;;;;;;;;;;4970467;28;20117;-57
2024/03/05 16:41:22;;;;;;;23.85;11.60;;;;;;;;;;4972538;28;20050;-53
2024/03/05 16:44:16;;;;;;;26.35;12.52;;;;;;;;;;4970707;28;20061;-55
2024/03/05 16:47:03;;;;;;;24.05;12.30;;;;;;;;;;4969035;28;20058;-54
2024/03/05 16:49:57;;;;;;;24.20;11.85;;;;;;;;;;4971555;28;20061;-56
2024/03/05 16:52:45;;;;;;;23.40;12.05;;;;;;;;;;4975807;28;20054;-61